sensor_id;sensor_type;location;lat;lon;timestamp;P1;durP1;ratioP1;P2;durP2;ratioP2
3081;SDS011;1551;51.046;7.010;2023-12-04T00:02:02;16.70;;;10.05;;
3081;SDS011;1551;51.046;7.010;2023-12-04T00:04:51;14.70;;;9.98;;
3081;SDS011;1551;51.046;7.010;2023-12-04T00:07:40;12.20;;;9.43;;
3081;SDS011;1551;51.046;7.010;2023-12-04T00:10:29;12.57;;;9.10;;
3081;SDS011;1551;51.046;7.010;2023-12-04T00:13:18;13.33;;;9.30;;
3081;SDS011;1551;51.046;7.010;2023-12-04T00:16:07;13.40;;;9.93;;
3081;SDS011;1551;51.046;7.010;2023-12-04T00:18:57;13.77;;;10.15;;
3081;SDS011;1551;51.046;7.010;2023-12-04T00:21:46;13.70;;;9.50;;
3081;SDS011;1551;51.046;7.010;2023-12-04T00:24:35;13.60;;;9.90;;
3081;SDS011;1551;51.046;7.010;2023-12-04T00:27:24;14.15;;;9.95;;
3081;SDS011;1551;51.046;7.010;2023-12-04T00:30:15;11.32;;;9.23;;
3081;SDS011;1551;51.046;7.010;2023-12-04T00:33:04;12.77;;;9.77;;
3081;SDS011;1551;51.046;7.010;2023-12-04T00:35:53;14.18;;;9.43;;
3081;SDS011;1551;51.046;7.010;2023-12-04T00:38:42;12.68;;;8.38;;
3081;SDS011;1551;51.046;7.010;2023-12-04T00:41:31;15.45;;;10.43;;
3081;SDS011;1551;51.046;7.010;2023-12-04T00:44:20;11.00;;;8.43;;
3081;SDS011;1551;51.046;7.010;2023-12-04T00:47:09;13.90;;;8.70;;
3081;SDS011;1551;51.046;7.010;2023-12-04T00:49:58;12.98;;;9.00;;
3081;SDS011;1551;51.046;7.010;2023-12-04T00:52:46;12.27;;;8.93;;
3081;SDS011;1551;51.046;7.010;2023-12-04T00:55:36;13.57;;;9.25;;
3081;SDS011;1551;51.046;7.010;2023-12-04T00:58:25;14.93;;;9.52;;
3081;SDS011;1551;51.046;7.010;2023-12-04T01:01:14;12.70;;;9.00;;
3081;SDS011;1551;51.046;7.010;2023-12-04T01:04:03;11.27;;;9.27;;
3081;SDS011;1551;51.046;7.010;2023-12-04T01:06:52;11.35;;;8.57;;
3081;SDS011;1551;51.046;7.010;2023-12-04T01:09:41;12.80;;;8.60;;
3081;SDS011;1551;51.046;7.010;2023-12-04T01:12:30;12.97;;;8.87;;
3081;SDS011;1551;51.046;7.010;2023-12-04T01:15:19;10.68;;;7.68;;
3081;SDS011;1551;51.046;7.010;2023-12-04T01:18:08;11.88;;;8.57;;
3081;SDS011;1551;51.046;7.010;2023-12-04T01:20:57;9.98;;;7.40;;
3081;SDS011;1551;51.046;7.010;2023-12-04T01:23:46;12.80;;;9.20;;
3081;SDS011;1551;51.046;7.010;2023-12-04T01:26:35;12.70;;;9.73;;
3081;SDS011;1551;51.046;7.010;2023-12-04T01:29:24;11.23;;;7.90;;
3081;SDS011;1551;51.046;7.010;2023-12-04T01:32:13;11.60;;;8.57;;
3081;SDS011;1551;51.046;7.010;2023-12-04T01:35:02;12.85;;;8.20;;
3081;SDS011;1551;51.046;7.010;2023-12-04T01:37:51;12.32;;;8.35;;
3081;SDS011;1551;51.046;7.010;2023-12-04T01:40:40;13.25;;;8.82;;
3081;SDS011;1551;51.046;7.010;2023-12-04T01:43:29;11.52;;;8.23;;
3081;SDS011;1551;51.046;7.010;2023-12-04T01:46:18;12.67;;;8.67;;
3081;SDS011;1551;51.046;7.010;2023-12-04T01:49:07;12.18;;;8.40;;
3081;SDS011;1551;51.046;7.010;2023-12-04T01:51:56;11.65;;;8.25;;
3081;SDS011;1551;51.046;7.010;2023-12-04T01:54:45;10.23;;;8.20;;
3081;SDS011;1551;51.046;7.010;2023-12-04T01:57:34;12.45;;;9.10;;
3081;SDS011;1551;51.046;7.010;2023-12-04T02:00:24;12.60;;;9.45;;
3081;SDS011;1551;51.046;7.010;2023-12-04T02:03:13;9.60;;;7.60;;
3081;SDS011;1551;51.046;7.010;2023-12-04T02:06:02;12.07;;;7.97;;
3081;SDS011;1551;51.046;7.010;2023-12-04T02:08:54;11.52;;;8.45;;
3081;SDS011;1551;51.046;7.010;2023-12-04T02:11:43;13.60;;;8.55;;
3081;SDS011;1551;51.046;7.010;2023-12-04T02:14:32;12.50;;;8.77;;
3081;SDS011;1551;51.046;7.010;2023-12-04T02:17:21;12.60;;;8.43;;
3081;SDS011;1551;51.046;7.010;2023-12-04T02:20:12;11.48;;;8.27;;
3081;SDS011;1551;51.046;7.010;2023-12-04T02:23:02;11.65;;;8.10;;
3081;SDS011;1551;51.046;7.010;2023-12-04T02:25:51;12.10;;;8.30;;
3081;SDS011;1551;51.046;7.010;2023-12-04T02:28:49;11.50;;;8.27;;
3081;SDS011;1551;51.046;7.010;2023-12-04T02:31:43;15.17;;;8.30;;
3081;SDS011;1551;51.046;7.010;2023-12-04T02:34:34;10.05;;;8.07;;
3081;SDS011;1551;51.046;7.010;2023-12-04T02:37:25;11.25;;;8.80;;
3081;SDS011;1551;51.046;7.010;2023-12-04T02:40:15;11.02;;;7.90;;
3081;SDS011;1551;51.046;7.010;2023-12-04T02:43:04;10.10;;;8.00;;
3081;SDS011;1551;51.046;7.010;2023-12-04T02:45:53;11.95;;;8.38;;
3081;SDS011;1551;51.046;7.010;2023-12-04T02:48:42;11.77;;;8.35;;
3081;SDS011;1551;51.046;7.010;2023-12-04T02:51:31;11.93;;;8.02;;
3081;SDS011;1551;51.046;7.010;2023-12-04T02:54:20;10.98;;;7.65;;
3081;SDS011;1551;51.046;7.010;2023-12-04T02:57:09;12.32;;;8.07;;
3081;SDS011;1551;51.046;7.010;2023-12-04T02:59:58;11.43;;;8.40;;
3081;SDS011;1551;51.046;7.010;2023-12-04T03:02:47;10.15;;;7.40;;
3081;SDS011;1551;51.046;7.010;2023-12-04T03:05:36;8.97;;;7.47;;
3081;SDS011;1551;51.046;7.010;2023-12-04T03:08:25;11.10;;;8.10;;
3081;SDS011;1551;51.046;7.010;2023-12-04T03:11:14;10.00;;;7.72;;
3081;SDS011;1551;51.046;7.010;2023-12-04T03:14:03;11.77;;;8.30;;
3081;SDS011;1551;51.046;7.010;2023-12-04T03:16:52;11.20;;;8.25;;
3081;SDS011;1551;51.046;7.010;2023-12-04T03:19:41;9.88;;;6.90;;
3081;SDS011;1551;51.046;7.010;2023-12-04T03:22:30;9.50;;;7.00;;
3081;SDS011;1551;51.046;7.010;2023-12-04T03:25:19;10.05;;;7.72;;
3081;SDS011;1551;51.046;7.010;2023-12-04T03:28:08;10.23;;;7.53;;
3081;SDS011;1551;51.046;7.010;2023-12-04T03:30:57;9.15;;;7.10;;
3081;SDS011;1551;51.046;7.010;2023-12-04T03:33:45;11.02;;;7.78;;
3081;SDS011;1551;51.046;7.010;2023-12-04T03:36:34;9.05;;;7.40;;
3081;SDS011;1551;51.046;7.010;2023-12-04T03:39:23;11.02;;;7.45;;
3081;SDS011;1551;51.046;7.010;2023-12-04T03:42:12;10.25;;;7.38;;
3081;SDS011;1551;51.046;7.010;2023-12-04T03:45:01;10.20;;;7.07;;
3081;SDS011;1551;51.046;7.010;2023-12-04T03:47:50;8.60;;;6.03;;
3081;SDS011;1551;51.046;7.010;2023-12-04T03:50:39;10.20;;;6.85;;
3081;SDS011;1551;51.046;7.010;2023-12-04T03:53:28;9.82;;;7.13;;
3081;SDS011;1551;51.046;7.010;2023-12-04T03:56:17;9.77;;;6.45;;
3081;SDS011;1551;51.046;7.010;2023-12-04T03:59:08;9.13;;;6.90;;
3081;SDS011;1551;51.046;7.010;2023-12-04T04:01:57;10.13;;;6.80;;
3081;SDS011;1551;51.046;7.010;2023-12-04T04:04:46;9.85;;;7.20;;
3081;SDS011;1551;51.046;7.010;2023-12-04T04:07:35;11.20;;;6.93;;
3081;SDS011;1551;51.046;7.010;2023-12-04T04:10:24;8.75;;;6.30;;
3081;SDS011;1551;51.046;7.010;2023-12-04T04:13:13;9.47;;;6.80;;
3081;SDS011;1551;51.046;7.010;2023-12-04T04:16:02;11.60;;;8.18;;
3081;SDS011;1551;51.046;7.010;2023-12-04T04:18:52;9.82;;;7.55;;
3081;SDS011;1551;51.046;7.010;2023-12-04T04:21:40;9.60;;;7.30;;
3081;SDS011;1551;51.046;7.010;2023-12-04T04:24:29;9.35;;;7.00;;
3081;SDS011;1551;51.046;7.010;2023-12-04T04:27:18;10.15;;;6.88;;
3081;SDS011;1551;51.046;7.010;2023-12-04T04:30:07;9.75;;;7.05;;
3081;SDS011;1551;51.046;7.010;2023-12-04T04:32:57;11.38;;;7.63;;
3081;SDS011;1551;51.046;7.010;2023-12-04T04:35:46;10.07;;;7.90;;
3081;SDS011;1551;51.046;7.010;2023-12-04T04:38:35;9.50;;;7.22;;
3081;SDS011;1551;51.046;7.010;2023-12-04T04:41:24;11.38;;;7.55;;
3081;SDS011;1551;51.046;7.010;2023-12-04T04:44:13;10.55;;;7.25;;
3081;SDS011;1551;51.046;7.010;2023-12-04T04:47:02;10.30;;;7.03;;
3081;SDS011;1551;51.046;7.010;2023-12-04T04:49:51;11.77;;;7.70;;
3081;SDS011;1551;51.046;7.010;2023-12-04T04:52:40;11.47;;;8.30;;
3081;SDS011;1551;51.046;7.010;2023-12-04T04:55:28;10.45;;;7.45;;
3081;SDS011;1551;51.046;7.010;2023-12-04T04:58:19;11.10;;;8.02;;
3081;SDS011;1551;51.046;7.010;2023-12-04T05:01:08;8.60;;;7.22;;
3081;SDS011;1551;51.046;7.010;2023-12-04T05:03:57;10.90;;;8.48;;
3081;SDS011;1551;51.046;7.010;2023-12-04T05:06:46;11.50;;;7.40;;
3081;SDS011;1551;51.046;7.010;2023-12-04T05:09:35;11.77;;;8.55;;
3081;SDS011;1551;51.046;7.010;2023-12-04T05:12:24;9.68;;;7.47;;
3081;SDS011;1551;51.046;7.010;2023-12-04T05:15:13;11.07;;;7.40;;
3081;SDS011;1551;51.046;7.010;2023-12-04T05:18:02;11.75;;;8.70;;
3081;SDS011;1551;51.046;7.010;2023-12-04T05:20:50;11.90;;;7.97;;
3081;SDS011;1551;51.046;7.010;2023-12-04T05:23:39;10.80;;;7.95;;
3081;SDS011;1551;51.046;7.010;2023-12-04T05:26:29;11.68;;;7.95;;
3081;SDS011;1551;51.046;7.010;2023-12-04T05:29:18;11.00;;;8.70;;
3081;SDS011;1551;51.046;7.010;2023-12-04T05:32:07;13.00;;;9.10;;
3081;SDS011;1551;51.046;7.010;2023-12-04T05:34:56;11.70;;;9.10;;
3081;SDS011;1551;51.046;7.010;2023-12-04T05:37:44;14.15;;;9.63;;
3081;SDS011;1551;51.046;7.010;2023-12-04T05:40:34;11.33;;;8.43;;
3081;SDS011;1551;51.046;7.010;2023-12-04T05:43:23;12.07;;;8.48;;
3081;SDS011;1551;51.046;7.010;2023-12-04T05:46:12;11.63;;;8.90;;
3081;SDS011;1551;51.046;7.010;2023-12-04T05:49:01;12.63;;;9.10;;
3081;SDS011;1551;51.046;7.010;2023-12-04T05:51:50;12.23;;;9.10;;
3081;SDS011;1551;51.046;7.010;2023-12-04T05:54:40;12.95;;;9.43;;
3081;SDS011;1551;51.046;7.010;2023-12-04T05:57:29;11.68;;;8.95;;
3081;SDS011;1551;51.046;7.010;2023-12-04T06:00:18;13.00;;;9.20;;
3081;SDS011;1551;51.046;7.010;2023-12-04T06:03:07;13.15;;;8.85;;
3081;SDS011;1551;51.046;7.010;2023-12-04T06:05:56;12.73;;;8.93;;
3081;SDS011;1551;51.046;7.010;2023-12-04T06:08:45;12.77;;;8.70;;
3081;SDS011;1551;51.046;7.010;2023-12-04T06:11:34;11.80;;;9.10;;
3081;SDS011;1551;51.046;7.010;2023-12-04T06:14:23;12.32;;;8.85;;
3081;SDS011;1551;51.046;7.010;2023-12-04T06:17:12;13.50;;;8.93;;
3081;SDS011;1551;51.046;7.010;2023-12-04T06:20:01;13.82;;;9.30;;
3081;SDS011;1551;51.046;7.010;2023-12-04T06:22:50;13.45;;;9.60;;
3081;SDS011;1551;51.046;7.010;2023-12-04T06:25:40;12.40;;;9.20;;
3081;SDS011;1551;51.046;7.010;2023-12-04T06:28:29;11.48;;;8.98;;
3081;SDS011;1551;51.046;7.010;2023-12-04T06:31:18;13.48;;;8.93;;
3081;SDS011;1551;51.046;7.010;2023-12-04T06:34:08;14.75;;;10.10;;
3081;SDS011;1551;51.046;7.010;2023-12-04T06:36:57;12.13;;;9.23;;
3081;SDS011;1551;51.046;7.010;2023-12-04T06:39:48;12.25;;;8.70;;
3081;SDS011;1551;51.046;7.010;2023-12-04T06:42:41;13.47;;;9.23;;
3081;SDS011;1551;51.046;7.010;2023-12-04T06:45:30;13.87;;;9.63;;
3081;SDS011;1551;51.046;7.010;2023-12-04T06:48:21;12.63;;;9.68;;
3081;SDS011;1551;51.046;7.010;2023-12-04T06:51:10;13.40;;;9.13;;
3081;SDS011;1551;51.046;7.010;2023-12-04T06:53:59;12.98;;;9.20;;
3081;SDS011;1551;51.046;7.010;2023-12-04T06:56:48;10.85;;;8.60;;
3081;SDS011;1551;51.046;7.010;2023-12-04T06:59:37;10.70;;;8.03;;
3081;SDS011;1551;51.046;7.010;2023-12-04T07:02:26;14.98;;;9.70;;
3081;SDS011;1551;51.046;7.010;2023-12-04T07:05:15;10.07;;;8.27;;
3081;SDS011;1551;51.046;7.010;2023-12-04T07:08:05;12.98;;;9.05;;
3081;SDS011;1551;51.046;7.010;2023-12-04T07:10:54;12.18;;;8.13;;
3081;SDS011;1551;51.046;7.010;2023-12-04T07:13:43;13.30;;;8.63;;
3081;SDS011;1551;51.046;7.010;2023-12-04T07:16:38;13.32;;;9.23;;
3081;SDS011;1551;51.046;7.010;2023-12-04T07:19:30;11.27;;;8.07;;
3081;SDS011;1551;51.046;7.010;2023-12-04T07:22:19;10.20;;;8.02;;
3081;SDS011;1551;51.046;7.010;2023-12-04T07:25:08;11.83;;;8.60;;
3081;SDS011;1551;51.046;7.010;2023-12-04T07:27:57;11.07;;;7.72;;
3081;SDS011;1551;51.046;7.010;2023-12-04T07:30:46;11.23;;;7.47;;
3081;SDS011;1551;51.046;7.010;2023-12-04T07:33:35;10.88;;;7.95;;
3081;SDS011;1551;51.046;7.010;2023-12-04T07:36:24;11.07;;;7.30;;
3081;SDS011;1551;51.046;7.010;2023-12-04T07:39:14;10.52;;;6.97;;
3081;SDS011;1551;51.046;7.010;2023-12-04T07:42:04;9.65;;;7.07;;
3081;SDS011;1551;51.046;7.010;2023-12-04T07:44:53;9.50;;;6.85;;
3081;SDS011;1551;51.046;7.010;2023-12-04T07:47:42;8.87;;;6.80;;
3081;SDS011;1551;51.046;7.010;2023-12-04T07:50:31;9.82;;;7.15;;
3081;SDS011;1551;51.046;7.010;2023-12-04T07:53:20;9.40;;;6.45;;
3081;SDS011;1551;51.046;7.010;2023-12-04T07:56:09;10.15;;;6.32;;
3081;SDS011;1551;51.046;7.010;2023-12-04T07:58:58;9.45;;;6.82;;
3081;SDS011;1551;51.046;7.010;2023-12-04T08:01:47;8.80;;;6.50;;
3081;SDS011;1551;51.046;7.010;2023-12-04T08:04:36;8.80;;;6.60;;
3081;SDS011;1551;51.046;7.010;2023-12-04T08:07:25;7.90;;;6.70;;
3081;SDS011;1551;51.046;7.010;2023-12-04T08:10:14;7.85;;;6.30;;
3081;SDS011;1551;51.046;7.010;2023-12-04T08:13:03;7.63;;;6.03;;
3081;SDS011;1551;51.046;7.010;2023-12-04T08:15:52;8.32;;;6.80;;
3081;SDS011;1551;51.046;7.010;2023-12-04T08:18:41;9.48;;;5.70;;
3081;SDS011;1551;51.046;7.010;2023-12-04T08:21:29;10.27;;;6.75;;
3081;SDS011;1551;51.046;7.010;2023-12-04T08:24:19;8.00;;;6.00;;
3081;SDS011;1551;51.046;7.010;2023-12-04T08:27:07;9.38;;;6.70;;
3081;SDS011;1551;51.046;7.010;2023-12-04T08:29:56;8.30;;;6.40;;
3081;SDS011;1551;51.046;7.010;2023-12-04T08:32:45;7.85;;;6.80;;
3081;SDS011;1551;51.046;7.010;2023-12-04T08:35:34;8.20;;;6.40;;
3081;SDS011;1551;51.046;7.010;2023-12-04T08:38:23;7.77;;;5.77;;
3081;SDS011;1551;51.046;7.010;2023-12-04T08:41:12;8.70;;;6.93;;
3081;SDS011;1551;51.046;7.010;2023-12-04T08:44:01;7.80;;;6.50;;
3081;SDS011;1551;51.046;7.010;2023-12-04T08:46:50;10.43;;;7.20;;
3081;SDS011;1551;51.046;7.010;2023-12-04T08:49:42;9.60;;;6.90;;
3081;SDS011;1551;51.046;7.010;2023-12-04T08:52:32;8.82;;;6.90;;
3081;SDS011;1551;51.046;7.010;2023-12-04T08:55:21;9.30;;;7.07;;
3081;SDS011;1551;51.046;7.010;2023-12-04T08:58:10;8.40;;;6.25;;
3081;SDS011;1551;51.046;7.010;2023-12-04T09:00:59;10.02;;;6.60;;
3081;SDS011;1551;51.046;7.010;2023-12-04T09:03:48;10.43;;;7.65;;
3081;SDS011;1551;51.046;7.010;2023-12-04T09:06:38;9.80;;;7.43;;
3081;SDS011;1551;51.046;7.010;2023-12-04T09:09:26;9.18;;;6.60;;
3081;SDS011;1551;51.046;7.010;2023-12-04T09:12:15;11.65;;;8.13;;
3081;SDS011;1551;51.046;7.010;2023-12-04T09:15:04;7.53;;;6.18;;
3081;SDS011;1551;51.046;7.010;2023-12-04T09:17:54;9.70;;;6.70;;
3081;SDS011;1551;51.046;7.010;2023-12-04T09:20:43;9.00;;;6.15;;
3081;SDS011;1551;51.046;7.010;2023-12-04T09:23:32;9.45;;;7.13;;
3081;SDS011;1551;51.046;7.010;2023-12-04T09:26:21;8.63;;;6.50;;
3081;SDS011;1551;51.046;7.010;2023-12-04T09:29:11;9.10;;;6.10;;
3081;SDS011;1551;51.046;7.010;2023-12-04T09:32:01;10.40;;;7.13;;
3081;SDS011;1551;51.046;7.010;2023-12-04T09:34:50;9.88;;;7.65;;
3081;SDS011;1551;51.046;7.010;2023-12-04T09:37:39;7.80;;;6.25;;
3081;SDS011;1551;51.046;7.010;2023-12-04T09:40:27;8.45;;;6.43;;
3081;SDS011;1551;51.046;7.010;2023-12-04T09:43:16;8.60;;;6.78;;
3081;SDS011;1551;51.046;7.010;2023-12-04T09:46:06;8.10;;;6.70;;
3081;SDS011;1551;51.046;7.010;2023-12-04T09:48:56;8.50;;;6.22;;
3081;SDS011;1551;51.046;7.010;2023-12-04T09:51:46;9.73;;;6.75;;
3081;SDS011;1551;51.046;7.010;2023-12-04T09:54:36;7.50;;;5.70;;
3081;SDS011;1551;51.046;7.010;2023-12-04T09:57:26;8.00;;;5.95;;
3081;SDS011;1551;51.046;7.010;2023-12-04T10:00:15;8.82;;;6.00;;
3081;SDS011;1551;51.046;7.010;2023-12-04T10:03:04;8.07;;;6.40;;
3081;SDS011;1551;51.046;7.010;2023-12-04T10:05:53;10.13;;;6.27;;
3081;SDS011;1551;51.046;7.010;2023-12-04T10:08:43;7.17;;;5.63;;
3081;SDS011;1551;51.046;7.010;2023-12-04T10:11:39;8.50;;;6.22;;
3081;SDS011;1551;51.046;7.010;2023-12-04T10:14:28;9.70;;;6.65;;
3081;SDS011;1551;51.046;7.010;2023-12-04T10:17:18;7.60;;;5.60;;
3081;SDS011;1551;51.046;7.010;2023-12-04T10:20:12;7.63;;;5.80;;
3081;SDS011;1551;51.046;7.010;2023-12-04T10:23:05;7.10;;;5.55;;
3081;SDS011;1551;51.046;7.010;2023-12-04T10:25:54;8.48;;;6.07;;
3081;SDS011;1551;51.046;7.010;2023-12-04T10:29:00;9.30;;;6.78;;
3081;SDS011;1551;51.046;7.010;2023-12-04T10:31:51;9.63;;;6.40;;
3081;SDS011;1551;51.046;7.010;2023-12-04T10:34:41;7.85;;;6.40;;
3081;SDS011;1551;51.046;7.010;2023-12-04T10:37:31;8.98;;;5.70;;
3081;SDS011;1551;51.046;7.010;2023-12-04T10:40:24;9.77;;;6.22;;
3081;SDS011;1551;51.046;7.010;2023-12-04T10:43:18;6.95;;;5.40;;
3081;SDS011;1551;51.046;7.010;2023-12-04T10:46:08;8.43;;;6.30;;
3081;SDS011;1551;51.046;7.010;2023-12-04T10:48:57;7.50;;;5.93;;
3081;SDS011;1551;51.046;7.010;2023-12-04T10:51:47;8.27;;;6.38;;
3081;SDS011;1551;51.046;7.010;2023-12-04T10:54:36;10.43;;;6.43;;
3081;SDS011;1551;51.046;7.010;2023-12-04T10:57:26;9.80;;;7.10;;
3081;SDS011;1551;51.046;7.010;2023-12-04T11:00:19;9.60;;;6.38;;
3081;SDS011;1551;51.046;7.010;2023-12-04T11:03:13;8.82;;;6.40;;
3081;SDS011;1551;51.046;7.010;2023-12-04T11:06:09;8.30;;;6.07;;
3081;SDS011;1551;51.046;7.010;2023-12-04T11:09:00;9.13;;;5.70;;
3081;SDS011;1551;51.046;7.010;2023-12-04T11:11:53;10.93;;;7.60;;
3081;SDS011;1551;51.046;7.010;2023-12-04T11:14:50;9.60;;;7.28;;
3081;SDS011;1551;51.046;7.010;2023-12-04T11:17:46;7.93;;;5.95;;
3081;SDS011;1551;51.046;7.010;2023-12-04T11:20:43;7.80;;;6.22;;
3081;SDS011;1551;51.046;7.010;2023-12-04T11:23:37;9.05;;;6.72;;
3081;SDS011;1551;51.046;7.010;2023-12-04T11:26:27;9.15;;;6.90;;
3081;SDS011;1551;51.046;7.010;2023-12-04T11:29:17;9.45;;;7.40;;
3081;SDS011;1551;51.046;7.010;2023-12-04T11:32:07;8.65;;;7.28;;
3081;SDS011;1551;51.046;7.010;2023-12-04T11:34:58;8.83;;;7.23;;
3081;SDS011;1551;51.046;7.010;2023-12-04T11:37:48;9.77;;;7.03;;
3081;SDS011;1551;51.046;7.010;2023-12-04T11:40:37;10.30;;;7.80;;
3081;SDS011;1551;51.046;7.010;2023-12-04T11:43:27;11.83;;;7.30;;
3081;SDS011;1551;51.046;7.010;2023-12-04T11:46:24;10.40;;;7.65;;
3081;SDS011;1551;51.046;7.010;2023-12-04T11:52:14;8.32;;;6.75;;
3081;SDS011;1551;51.046;7.010;2023-12-04T11:55:04;11.00;;;7.47;;
3081;SDS011;1551;51.046;7.010;2023-12-04T11:57:54;13.40;;;8.30;;
3081;SDS011;1551;51.046;7.010;2023-12-04T12:00:43;11.30;;;9.00;;
3081;SDS011;1551;51.046;7.010;2023-12-04T12:03:32;11.20;;;7.22;;
3081;SDS011;1551;51.046;7.010;2023-12-04T12:06:21;10.07;;;7.10;;
3081;SDS011;1551;51.046;7.010;2023-12-04T12:09:12;9.60;;;7.70;;
3081;SDS011;1551;51.046;7.010;2023-12-04T12:12:01;10.75;;;8.10;;
3081;SDS011;1551;51.046;7.010;2023-12-04T12:14:51;11.00;;;8.00;;
3081;SDS011;1551;51.046;7.010;2023-12-04T12:17:42;10.93;;;8.27;;
3081;SDS011;1551;51.046;7.010;2023-12-04T12:20:31;11.88;;;7.85;;
3081;SDS011;1551;51.046;7.010;2023-12-04T12:23:20;9.82;;;7.25;;
3081;SDS011;1551;51.046;7.010;2023-12-04T12:26:09;10.65;;;7.68;;
3081;SDS011;1551;51.046;7.010;2023-12-04T12:28:58;11.45;;;7.93;;
3081;SDS011;1551;51.046;7.010;2023-12-04T12:31:47;11.43;;;7.70;;
3081;SDS011;1551;51.046;7.010;2023-12-04T12:34:36;10.10;;;7.38;;
3081;SDS011;1551;51.046;7.010;2023-12-04T12:37:25;10.80;;;7.30;;
3081;SDS011;1551;51.046;7.010;2023-12-04T12:40:15;12.57;;;8.30;;
3081;SDS011;1551;51.046;7.010;2023-12-04T12:43:05;10.88;;;8.07;;
3081;SDS011;1551;51.046;7.010;2023-12-04T12:45:54;10.80;;;8.13;;
3081;SDS011;1551;51.046;7.010;2023-12-04T12:48:43;10.77;;;9.30;;
3081;SDS011;1551;51.046;7.010;2023-12-04T12:51:33;11.32;;;8.40;;
3081;SDS011;1551;51.046;7.010;2023-12-04T12:54:25;10.98;;;8.27;;
3081;SDS011;1551;51.046;7.010;2023-12-04T12:57:14;11.88;;;7.70;;
3081;SDS011;1551;51.046;7.010;2023-12-04T13:00:03;11.30;;;8.98;;
3081;SDS011;1551;51.046;7.010;2023-12-04T13:02:54;12.02;;;8.60;;
3081;SDS011;1551;51.046;7.010;2023-12-04T13:05:43;11.73;;;7.45;;
3081;SDS011;1551;51.046;7.010;2023-12-04T13:08:32;12.00;;;8.85;;
3081;SDS011;1551;51.046;7.010;2023-12-04T13:11:21;9.98;;;7.63;;
3081;SDS011;1551;51.046;7.010;2023-12-04T13:14:10;12.20;;;7.50;;
3081;SDS011;1551;51.046;7.010;2023-12-04T13:16:59;11.55;;;7.95;;
3081;SDS011;1551;51.046;7.010;2023-12-04T13:19:48;10.00;;;7.30;;
3081;SDS011;1551;51.046;7.010;2023-12-04T13:22:37;9.82;;;6.03;;
3081;SDS011;1551;51.046;7.010;2023-12-04T13:25:25;8.50;;;6.97;;
3081;SDS011;1551;51.046;7.010;2023-12-04T13:28:15;8.63;;;6.50;;
3081;SDS011;1551;51.046;7.010;2023-12-04T13:31:04;11.88;;;7.05;;
3081;SDS011;1551;51.046;7.010;2023-12-04T13:33:53;8.40;;;6.20;;
3081;SDS011;1551;51.046;7.010;2023-12-04T13:36:42;8.50;;;6.40;;
3081;SDS011;1551;51.046;7.010;2023-12-04T13:39:31;11.27;;;6.63;;
3081;SDS011;1551;51.046;7.010;2023-12-04T13:42:40;9.70;;;6.10;;
3081;SDS011;1551;51.046;7.010;2023-12-04T13:45:48;8.45;;;6.38;;
3081;SDS011;1551;51.046;7.010;2023-12-04T13:48:36;9.25;;;6.57;;
3081;SDS011;1551;51.046;7.010;2023-12-04T13:51:29;9.20;;;6.60;;
3081;SDS011;1551;51.046;7.010;2023-12-04T13:54:18;9.20;;;6.32;;
3081;SDS011;1551;51.046;7.010;2023-12-04T13:57:16;8.98;;;6.72;;
3081;SDS011;1551;51.046;7.010;2023-12-04T14:00:25;7.90;;;6.32;;
3081;SDS011;1551;51.046;7.010;2023-12-04T14:03:14;7.30;;;5.55;;
3081;SDS011;1551;51.046;7.010;2023-12-04T14:06:03;7.57;;;5.45;;
3081;SDS011;1551;51.046;7.010;2023-12-04T14:08:53;7.03;;;5.03;;
3081;SDS011;1551;51.046;7.010;2023-12-04T14:11:42;8.77;;;5.13;;
3081;SDS011;1551;51.046;7.010;2023-12-04T14:14:33;6.53;;;5.10;;
3081;SDS011;1551;51.046;7.010;2023-12-04T14:17:23;8.63;;;5.68;;
3081;SDS011;1551;51.046;7.010;2023-12-04T14:20:12;8.23;;;5.85;;
3081;SDS011;1551;51.046;7.010;2023-12-04T14:23:04;7.00;;;5.43;;
3081;SDS011;1551;51.046;7.010;2023-12-04T14:25:54;7.38;;;5.68;;
3081;SDS011;1551;51.046;7.010;2023-12-04T14:28:42;7.80;;;6.40;;
3081;SDS011;1551;51.046;7.010;2023-12-04T14:31:31;7.35;;;5.53;;
3081;SDS011;1551;51.046;7.010;2023-12-04T14:34:20;6.57;;;4.90;;
3081;SDS011;1551;51.046;7.010;2023-12-04T14:37:11;7.45;;;5.47;;
3081;SDS011;1551;51.046;7.010;2023-12-04T14:39:59;7.80;;;5.43;;
3081;SDS011;1551;51.046;7.010;2023-12-04T14:42:48;7.63;;;5.30;;
3081;SDS011;1551;51.046;7.010;2023-12-04T14:45:37;6.82;;;4.70;;
3081;SDS011;1551;51.046;7.010;2023-12-04T14:48:26;7.20;;;5.68;;
3081;SDS011;1551;51.046;7.010;2023-12-04T14:51:16;8.13;;;5.45;;
3081;SDS011;1551;51.046;7.010;2023-12-04T14:54:05;6.10;;;4.43;;
3081;SDS011;1551;51.046;7.010;2023-12-04T14:57:09;7.70;;;5.85;;
3081;SDS011;1551;51.046;7.010;2023-12-04T15:00:08;7.73;;;5.73;;
3081;SDS011;1551;51.046;7.010;2023-12-04T15:02:58;7.47;;;5.10;;
3081;SDS011;1551;51.046;7.010;2023-12-04T15:05:59;6.82;;;5.18;;
3081;SDS011;1551;51.046;7.010;2023-12-04T15:09:08;5.57;;;4.53;;
3081;SDS011;1551;51.046;7.010;2023-12-04T15:12:16;6.22;;;4.65;;
3081;SDS011;1551;51.046;7.010;2023-12-04T15:15:51;6.22;;;4.88;;
3081;SDS011;1551;51.046;7.010;2023-12-04T15:18:59;5.57;;;4.50;;
3081;SDS011;1551;51.046;7.010;2023-12-04T15:21:54;7.00;;;4.82;;
3081;SDS011;1551;51.046;7.010;2023-12-04T15:24:43;5.90;;;4.63;;
3081;SDS011;1551;51.046;7.010;2023-12-04T15:27:32;5.87;;;4.67;;
3081;SDS011;1551;51.046;7.010;2023-12-04T15:30:21;5.30;;;4.05;;
3081;SDS011;1551;51.046;7.010;2023-12-04T15:33:10;5.63;;;4.40;;
3081;SDS011;1551;51.046;7.010;2023-12-04T15:35:59;7.07;;;5.90;;
3081;SDS011;1551;51.046;7.010;2023-12-04T15:38:48;6.00;;;4.70;;
3081;SDS011;1551;51.046;7.010;2023-12-04T15:41:37;5.95;;;4.43;;
3081;SDS011;1551;51.046;7.010;2023-12-04T15:44:26;5.80;;;4.60;;
3081;SDS011;1551;51.046;7.010;2023-12-04T15:47:15;7.28;;;4.57;;
3081;SDS011;1551;51.046;7.010;2023-12-04T15:50:04;6.22;;;5.00;;
3081;SDS011;1551;51.046;7.010;2023-12-04T15:52:56;5.80;;;4.90;;
3081;SDS011;1551;51.046;7.010;2023-12-04T15:55:45;7.65;;;6.00;;
3081;SDS011;1551;51.046;7.010;2023-12-04T15:58:35;7.35;;;6.00;;
3081;SDS011;1551;51.046;7.010;2023-12-04T16:01:24;8.13;;;6.22;;
3081;SDS011;1551;51.046;7.010;2023-12-04T16:04:13;9.27;;;6.32;;
3081;SDS011;1551;51.046;7.010;2023-12-04T16:07:02;7.40;;;6.10;;
3081;SDS011;1551;51.046;7.010;2023-12-04T16:09:51;8.27;;;6.80;;
3081;SDS011;1551;51.046;7.010;2023-12-04T16:12:40;9.63;;;5.72;;
3081;SDS011;1551;51.046;7.010;2023-12-04T16:15:29;8.68;;;7.32;;
3081;SDS011;1551;51.046;7.010;2023-12-04T16:18:18;9.35;;;6.60;;
3081;SDS011;1551;51.046;7.010;2023-12-04T16:21:07;8.67;;;6.40;;
3081;SDS011;1551;51.046;7.010;2023-12-04T16:23:57;8.02;;;6.10;;
3081;SDS011;1551;51.046;7.010;2023-12-04T16:26:47;8.25;;;5.88;;
3081;SDS011;1551;51.046;7.010;2023-12-04T16:29:36;10.02;;;6.38;;
3081;SDS011;1551;51.046;7.010;2023-12-04T16:32:25;8.23;;;5.50;;
3081;SDS011;1551;51.046;7.010;2023-12-04T16:35:14;8.63;;;6.10;;
3081;SDS011;1551;51.046;7.010;2023-12-04T16:38:03;7.28;;;5.50;;
3081;SDS011;1551;51.046;7.010;2023-12-04T16:40:53;7.65;;;5.90;;
3081;SDS011;1551;51.046;7.010;2023-12-04T16:43:42;7.83;;;6.03;;
3081;SDS011;1551;51.046;7.010;2023-12-04T16:46:31;6.85;;;5.95;;
3081;SDS011;1551;51.046;7.010;2023-12-04T16:49:20;8.15;;;6.40;;
3081;SDS011;1551;51.046;7.010;2023-12-04T16:52:08;8.35;;;6.32;;
3081;SDS011;1551;51.046;7.010;2023-12-04T16:55:03;7.55;;;5.80;;
3081;SDS011;1551;51.046;7.010;2023-12-04T16:57:53;8.27;;;6.72;;
3081;SDS011;1551;51.046;7.010;2023-12-04T17:00:48;7.55;;;6.65;;
3081;SDS011;1551;51.046;7.010;2023-12-04T17:03:37;8.43;;;6.88;;
3081;SDS011;1551;51.046;7.010;2023-12-04T17:06:25;7.80;;;6.20;;
3081;SDS011;1551;51.046;7.010;2023-12-04T17:09:16;9.45;;;7.00;;
3081;SDS011;1551;51.046;7.010;2023-12-04T17:12:05;7.20;;;5.20;;
3081;SDS011;1551;51.046;7.010;2023-12-04T17:14:54;8.07;;;5.57;;
3081;SDS011;1551;51.046;7.010;2023-12-04T17:17:43;8.93;;;6.57;;
3081;SDS011;1551;51.046;7.010;2023-12-04T17:20:32;7.63;;;5.30;;
3081;SDS011;1551;51.046;7.010;2023-12-04T17:23:21;10.57;;;6.50;;
3081;SDS011;1551;51.046;7.010;2023-12-04T17:26:12;8.95;;;7.10;;
3081;SDS011;1551;51.046;7.010;2023-12-04T17:29:02;8.98;;;5.80;;
3081;SDS011;1551;51.046;7.010;2023-12-04T17:31:51;7.53;;;5.97;;